sensor_id;sensor_type;location;lat;lon;timestamp;temperature;humidity
698;DHT22;331;48.414;9.938;2023-03-21T00:01:34;9.10;99.90
698;DHT22;331;48.414;9.938;2023-03-21T00:04:03;9.10;99.90
698;DHT22;331;48.414;9.938;2023-03-21T00:06:33;9.10;99.90
698;DHT22;331;48.414;9.938;2023-03-21T00:09:01;9.10;99.90
698;DHT22;331;48.414;9.938;2023-03-21T00:11:30;9.10;99.90
698;DHT22;331;48.414;9.938;2023-03-21T00:13:58;9.10;99.90
698;DHT22;331;48.414;9.938;2023-03-21T00:16:27;9.10;99.90
698;DHT22;331;48.414;9.938;2023-03-21T00:19:01;9.10;99.90
698;DHT22;331;48.414;9.938;2023-03-21T00:21:30;9.10;99.90
698;DHT22;331;48.414;9.938;2023-03-21T00:24:00;9.10;99.90
698;DHT22;331;48.414;9.938;2023-03-21T00:26:29;9.00;99.90
698;DHT22;331;48.414;9.938;2023-03-21T00:28:58;9.00;99.90
698;DHT22;331;48.414;9.938;2023-03-21T00:31:26;9.00;99.90
698;DHT22;331;48.414;9.938;2023-03-21T00:33:53;9.00;99.90
698;DHT22;331;48.414;9.938;2023-03-21T00:36:22;9.00;99.90
698;DHT22;331;48.414;9.938;2023-03-21T00:38:52;9.00;99.90
698;DHT22;331;48.414;9.938;2023-03-21T00:41:19;9.00;99.90
698;DHT22;331;48.414;9.938;2023-03-21T00:43:46;9.00;99.90
698;DHT22;331;48.414;9.938;2023-03-21T00:46:14;9.00;99.90
698;DHT22;331;48.414;9.938;2023-03-21T00:48:41;9.00;99.90
698;DHT22;331;48.414;9.938;2023-03-21T00:51:11;9.00;99.90
698;DHT22;331;48.414;9.938;2023-03-21T00:53:40;9.00;99.90
698;DHT22;331;48.414;9.938;2023-03-21T00:56:07;9.00;99.90
698;DHT22;331;48.414;9.938;2023-03-21T00:58:34;9.00;99.90
698;DHT22;331;48.414;9.938;2023-03-21T01:01:03;9.00;99.90
698;DHT22;331;48.414;9.938;2023-03-21T01:03:35;8.90;99.90
698;DHT22;331;48.414;9.938;2023-03-21T01:06:12;9.00;99.90
698;DHT22;331;48.414;9.938;2023-03-21T01:08:40;8.90;99.90
698;DHT22;331;48.414;9.938;2023-03-21T01:11:09;8.90;99.90
698;DHT22;331;48.414;9.938;2023-03-21T01:13:39;8.90;99.90
698;DHT22;331;48.414;9.938;2023-03-21T01:16:06;8.90;99.90
698;DHT22;331;48.414;9.938;2023-03-21T01:18:38;8.90;99.90
698;DHT22;331;48.414;9.938;2023-03-21T01:21:08;8.90;99.90
698;DHT22;331;48.414;9.938;2023-03-21T01:23:35;8.90;99.90
698;DHT22;331;48.414;9.938;2023-03-21T01:26:04;8.90;99.90
698;DHT22;331;48.414;9.938;2023-03-21T01:28:31;8.90;99.90
698;DHT22;331;48.414;9.938;2023-03-21T01:30:59;8.90;99.90
698;DHT22;331;48.414;9.938;2023-03-21T01:33:26;8.90;99.90
698;DHT22;331;48.414;9.938;2023-03-21T01:35:57;8.90;99.90
698;DHT22;331;48.414;9.938;2023-03-21T01:38:27;8.80;99.90
698;DHT22;331;48.414;9.938;2023-03-21T01:40:58;8.80;99.90
698;DHT22;331;48.414;9.938;2023-03-21T01:43:34;8.80;99.90
698;DHT22;331;48.414;9.938;2023-03-21T01:46:19;8.80;99.90
698;DHT22;331;48.414;9.938;2023-03-21T01:49:07;8.80;99.90
698;DHT22;331;48.414;9.938;2023-03-21T01:51:40;8.80;99.90
698;DHT22;331;48.414;9.938;2023-03-21T01:54:11;8.80;99.90
698;DHT22;331;48.414;9.938;2023-03-21T01:56:40;8.80;99.90
698;DHT22;331;48.414;9.938;2023-03-21T01:59:15;8.80;99.90
698;DHT22;331;48.414;9.938;2023-03-21T02:02:10;8.80;99.90
698;DHT22;331;48.414;9.938;2023-03-21T02:04:53;8.80;99.90
698;DHT22;331;48.414;9.938;2023-03-21T02:07:27;8.80;99.90
698;DHT22;331;48.414;9.938;2023-03-21T02:10:03;8.80;99.90
698;DHT22;331;48.414;9.938;2023-03-21T02:12:33;8.80;99.90
698;DHT22;331;48.414;9.938;2023-03-21T02:15:01;8.80;99.90
698;DHT22;331;48.414;9.938;2023-03-21T02:17:46;8.80;99.90
698;DHT22;331;48.414;9.938;2023-03-21T02:23:23;8.80;99.90
698;DHT22;331;48.414;9.938;2023-03-21T02:26:09;8.70;99.90
698;DHT22;331;48.414;9.938;2023-03-21T02:28:44;8.70;99.90
698;DHT22;331;48.414;9.938;2023-03-21T02:31:22;8.70;99.90
698;DHT22;331;48.414;9.938;2023-03-21T02:36:59;8.70;99.90
698;DHT22;331;48.414;9.938;2023-03-21T02:39:28;8.70;99.90
698;DHT22;331;48.414;9.938;2023-03-21T02:42:01;8.70;99.90
698;DHT22;331;48.414;9.938;2023-03-21T02:44:33;8.70;99.90
698;DHT22;331;48.414;9.938;2023-03-21T02:47:02;8.70;99.90
698;DHT22;331;48.414;9.938;2023-03-21T02:49:33;8.70;99.90
698;DHT22;331;48.414;9.938;2023-03-21T02:52:05;8.70;99.90
698;DHT22;331;48.414;9.938;2023-03-21T02:54:33;8.70;99.90
698;DHT22;331;48.414;9.938;2023-03-21T02:57:01;8.70;99.90
698;DHT22;331;48.414;9.938;2023-03-21T02:59:29;8.70;99.90
698;DHT22;331;48.414;9.938;2023-03-21T03:02:02;8.70;99.90
698;DHT22;331;48.414;9.938;2023-03-21T03:04:29;8.70;99.90
698;DHT22;331;48.414;9.938;2023-03-21T03:09:45;8.70;99.90
698;DHT22;331;48.414;9.938;2023-03-21T03:12:19;8.60;99.90
698;DHT22;331;48.414;9.938;2023-03-21T03:14:49;8.60;99.90
698;DHT22;331;48.414;9.938;2023-03-21T03:17:21;8.60;99.90
698;DHT22;331;48.414;9.938;2023-03-21T03:19:53;8.60;99.90
698;DHT22;331;48.414;9.938;2023-03-21T03:22:23;8.60;99.90
698;DHT22;331;48.414;9.938;2023-03-21T03:25:03;8.60;99.90
698;DHT22;331;48.414;9.938;2023-03-21T03:27:35;8.60;99.90
698;DHT22;331;48.414;9.938;2023-03-21T03:30:06;8.60;99.90
698;DHT22;331;48.414;9.938;2023-03-21T03:32:35;8.50;99.90
698;DHT22;331;48.414;9.938;2023-03-21T03:35:12;8.60;99.90
698;DHT22;331;48.414;9.938;2023-03-21T03:37:40;8.60;99.90
698;DHT22;331;48.414;9.938;2023-03-21T03:40:10;8.60;99.90
698;DHT22;331;48.414;9.938;2023-03-21T03:42:47;8.60;99.90
698;DHT22;331;48.414;9.938;2023-03-21T03:45:27;8.60;99.90
698;DHT22;331;48.414;9.938;2023-03-21T03:47:57;8.50;99.90
698;DHT22;331;48.414;9.938;2023-03-21T03:50:32;8.50;99.90
698;DHT22;331;48.414;9.938;2023-03-21T03:53:02;8.50;99.90
698;DHT22;331;48.414;9.938;2023-03-21T03:55:37;8.50;99.90
698;DHT22;331;48.414;9.938;2023-03-21T03:58:16;8.50;99.90
698;DHT22;331;48.414;9.938;2023-03-21T04:00:48;8.50;99.90
698;DHT22;331;48.414;9.938;2023-03-21T04:03:15;8.50;99.90
698;DHT22;331;48.414;9.938;2023-03-21T04:05:43;8.50;99.90
698;DHT22;331;48.414;9.938;2023-03-21T04:08:12;8.50;99.90
698;DHT22;331;48.414;9.938;2023-03-21T04:10:45;8.50;99.90
698;DHT22;331;48.414;9.938;2023-03-21T04:13:14;8.50;99.90
698;DHT22;331;48.414;9.938;2023-03-21T04:15:50;8.50;99.90
698;DHT22;331;48.414;9.938;2023-03-21T04:18:17;8.50;99.90
698;DHT22;331;48.414;9.938;2023-03-21T04:20:44;8.40;99.90
698;DHT22;331;48.414;9.938;2023-03-21T04:23:12;8.40;99.90
698;DHT22;331;48.414;9.938;2023-03-21T04:25:47;8.40;99.90
698;DHT22;331;48.414;9.938;2023-03-21T04:28:15;8.40;99.90
698;DHT22;331;48.414;9.938;2023-03-21T04:30:47;8.40;99.90
698;DHT22;331;48.414;9.938;2023-03-21T04:33:17;8.40;99.90
698;DHT22;331;48.414;9.938;2023-03-21T04:35:55;8.40;99.90
698;DHT22;331;48.414;9.938;2023-03-21T04:38:28;8.40;99.90
698;DHT22;331;48.414;9.938;2023-03-21T04:40:59;8.40;99.90
698;DHT22;331;48.414;9.938;2023-03-21T04:43:31;8.40;99.90
698;DHT22;331;48.414;9.938;2023-03-21T04:45:58;8.40;99.90
698;DHT22;331;48.414;9.938;2023-03-21T04:48:25;8.40;99.90
698;DHT22;331;48.414;9.938;2023-03-21T04:50:52;8.40;99.90
698;DHT22;331;48.414;9.938;2023-03-21T04:53:20;8.40;99.90
698;DHT22;331;48.414;9.938;2023-03-21T04:55:47;8.30;99.90
698;DHT22;331;48.414;9.938;2023-03-21T04:58:18;8.30;99.90
698;DHT22;331;48.414;9.938;2023-03-21T05:00:48;8.30;99.90
698;DHT22;331;48.414;9.938;2023-03-21T05:03:17;8.30;99.90
698;DHT22;331;48.414;9.938;2023-03-21T05:05:47;8.30;99.90
698;DHT22;331;48.414;9.938;2023-03-21T05:08:14;8.30;99.90
698;DHT22;331;48.414;9.938;2023-03-21T05:10:44;8.30;99.90
698;DHT22;331;48.414;9.938;2023-03-21T05:13:11;8.30;99.90
698;DHT22;331;48.414;9.938;2023-03-21T05:15:41;8.30;99.90
698;DHT22;331;48.414;9.938;2023-03-21T05:18:17;8.30;99.90
698;DHT22;331;48.414;9.938;2023-03-21T05:20:58;8.30;99.90
698;DHT22;331;48.414;9.938;2023-03-21T05:23:28;8.30;99.90
698;DHT22;331;48.414;9.938;2023-03-21T05:25:56;8.30;99.90
698;DHT22;331;48.414;9.938;2023-03-21T05:28:35;8.30;99.90
698;DHT22;331;48.414;9.938;2023-03-21T05:31:15;8.30;99.90
698;DHT22;331;48.414;9.938;2023-03-21T05:33:43;8.20;99.90
698;DHT22;331;48.414;9.938;2023-03-21T05:36:19;8.20;99.90
698;DHT22;331;48.414;9.938;2023-03-21T05:38:49;8.20;99.90
698;DHT22;331;48.414;9.938;2023-03-21T05:41:16;8.20;99.90
698;DHT22;331;48.414;9.938;2023-03-21T05:43:45;8.20;99.90
698;DHT22;331;48.414;9.938;2023-03-21T05:46:15;8.20;99.90
698;DHT22;331;48.414;9.938;2023-03-21T05:48:43;8.20;99.90
698;DHT22;331;48.414;9.938;2023-03-21T05:51:20;8.20;99.90
698;DHT22;331;48.414;9.938;2023-03-21T05:53:49;8.20;99.90
698;DHT22;331;48.414;9.938;2023-03-21T05:56:16;8.20;99.90
698;DHT22;331;48.414;9.938;2023-03-21T05:58:50;8.20;99.90
698;DHT22;331;48.414;9.938;2023-03-21T06:01:19;8.20;99.90
698;DHT22;331;48.414;9.938;2023-03-21T06:03:54;8.20;99.90
698;DHT22;331;48.414;9.938;2023-03-21T06:06:23;8.20;99.90
698;DHT22;331;48.414;9.938;2023-03-21T06:08:54;8.20;99.90
698;DHT22;331;48.414;9.938;2023-03-21T06:11:23;8.20;99.90
698;DHT22;331;48.414;9.938;2023-03-21T06:13:57;8.20;99.90
698;DHT22;331;48.414;9.938;2023-03-21T06:16:25;8.10;99.90
698;DHT22;331;48.414;9.938;2023-03-21T06:18:53;8.10;99.90
698;DHT22;331;48.414;9.938;2023-03-21T06:21:38;8.10;99.90
698;DHT22;331;48.414;9.938;2023-03-21T06:24:06;8.10;99.90
698;DHT22;331;48.414;9.938;2023-03-21T06:26:33;8.10;99.90
698;DHT22;331;48.414;9.938;2023-03-21T06:29:06;8.10;99.90
698;DHT22;331;48.414;9.938;2023-03-21T06:31:46;8.10;99.90
698;DHT22;331;48.414;9.938;2023-03-21T06:34:14;8.10;99.90
698;DHT22;331;48.414;9.938;2023-03-21T06:36:40;8.10;99.90
698;DHT22;331;48.414;9.938;2023-03-21T06:39:10;8.10;99.90
698;DHT22;331;48.414;9.938;2023-03-21T06:41:39;8.10;99.90
698;DHT22;331;48.414;9.938;2023-03-21T06:44:06;8.10;99.90
698;DHT22;331;48.414;9.938;2023-03-21T06:46:41;8.10;99.90
698;DHT22;331;48.414;9.938;2023-03-21T06:49:12;8.10;99.90
698;DHT22;331;48.414;9.938;2023-03-21T06:51:39;8.10;99.90
698;DHT22;331;48.414;9.938;2023-03-21T06:54:15;8.10;99.90
698;DHT22;331;48.414;9.938;2023-03-21T06:57:06;8.10;99.90
698;DHT22;331;48.414;9.938;2023-03-21T06:59:34;8.10;99.90
698;DHT22;331;48.414;9.938;2023-03-21T07:02:09;8.10;99.90
698;DHT22;331;48.414;9.938;2023-03-21T07:04:42;8.10;99.90
698;DHT22;331;48.414;9.938;2023-03-21T07:07:15;8.10;99.90
698;DHT22;331;48.414;9.938;2023-03-21T07:09:42;8.10;99.90
698;DHT22;331;48.414;9.938;2023-03-21T07:12:09;8.10;99.90
698;DHT22;331;48.414;9.938;2023-03-21T07:14:49;8.10;99.90
698;DHT22;331;48.414;9.938;2023-03-21T07:17:16;8.10;99.90
698;DHT22;331;48.414;9.938;2023-03-21T07:19:44;8.10;99.90
698;DHT22;331;48.414;9.938;2023-03-21T07:22:12;8.10;99.90
698;DHT22;331;48.414;9.938;2023-03-21T07:24:39;8.10;99.90
698;DHT22;331;48.414;9.938;2023-03-21T07:27:06;8.10;99.90
698;DHT22;331;48.414;9.938;2023-03-21T07:29:39;8.10;99.90
698;DHT22;331;48.414;9.938;2023-03-21T07:32:06;8.10;99.90
698;DHT22;331;48.414;9.938;2023-03-21T07:34:33;8.10;99.90
698;DHT22;331;48.414;9.938;2023-03-21T07:37:04;8.10;99.90
698;DHT22;331;48.414;9.938;2023-03-21T07:39:31;8.10;99.90
698;DHT22;331;48.414;9.938;2023-03-21T07:42:00;8.10;99.90
698;DHT22;331;48.414;9.938;2023-03-21T07:44:36;8.10;99.90
698;DHT22;331;48.414;9.938;2023-03-21T07:47:03;8.10;99.90
698;DHT22;331;48.414;9.938;2023-03-21T07:49:31;8.10;99.90
698;DHT22;331;48.414;9.938;2023-03-21T07:51:58;8.10;99.90
698;DHT22;331;48.414;9.938;2023-03-21T07:54:27;8.10;99.90
698;DHT22;331;48.414;9.938;2023-03-21T07:56:55;8.10;99.90
698;DHT22;331;48.414;9.938;2023-03-21T07:59:22;8.20;99.90
698;DHT22;331;48.414;9.938;2023-03-21T08:01:49;8.10;99.90
698;DHT22;331;48.414;9.938;2023-03-21T08:04:16;8.10;99.90
698;DHT22;331;48.414;9.938;2023-03-21T08:06:43;8.10;99.90
698;DHT22;331;48.414;9.938;2023-03-21T08:09:11;8.20;99.90
698;DHT22;331;48.414;9.938;2023-03-21T08:11:40;8.20;99.90
698;DHT22;331;48.414;9.938;2023-03-21T08:14:07;8.20;99.90
698;DHT22;331;48.414;9.938;2023-03-21T08:16:34;8.20;99.90
698;DHT22;331;48.414;9.938;2023-03-21T08:19:00;8.20;99.90
698;DHT22;331;48.414;9.938;2023-03-21T08:21:27;8.20;99.90
698;DHT22;331;48.414;9.938;2023-03-21T08:23:54;8.20;99.90
698;DHT22;331;48.414;9.938;2023-03-21T08:26:24;8.20;99.90
698;DHT22;331;48.414;9.938;2023-03-21T08:28:52;8.20;99.90
698;DHT22;331;48.414;9.938;2023-03-21T08:31:21;8.20;99.90
698;DHT22;331;48.414;9.938;2023-03-21T08:33:48;8.30;99.90
698;DHT22;331;48.414;9.938;2023-03-21T08:36:19;8.30;99.90
698;DHT22;331;48.414;9.938;2023-03-21T08:38:46;8.30;99.90
698;DHT22;331;48.414;9.938;2023-03-21T08:41:13;8.30;99.90
698;DHT22;331;48.414;9.938;2023-03-21T08:43:39;8.30;99.90
698;DHT22;331;48.414;9.938;2023-03-21T08:46:08;8.40;99.90
698;DHT22;331;48.414;9.938;2023-03-21T08:48:35;8.40;99.90
698;DHT22;331;48.414;9.938;2023-03-21T08:51:03;8.40;99.90
698;DHT22;331;48.414;9.938;2023-03-21T08:53:30;8.40;99.90
698;DHT22;331;48.414;9.938;2023-03-21T08:55:57;8.50;99.90
698;DHT22;331;48.414;9.938;2023-03-21T08:58:24;8.50;99.90
698;DHT22;331;48.414;9.938;2023-03-21T09:00:53;8.50;99.90
698;DHT22;331;48.414;9.938;2023-03-21T09:03:21;8.50;99.90
698;DHT22;331;48.414;9.938;2023-03-21T09:05:48;8.50;99.90
698;DHT22;331;48.414;9.938;2023-03-21T09:08:16;8.50;99.90
698;DHT22;331;48.414;9.938;2023-03-21T09:10:47;8.60;99.90
698;DHT22;331;48.414;9.938;2023-03-21T09:13:16;8.60;99.90
698;DHT22;331;48.414;9.938;2023-03-21T09:15:44;8.60;99.90
698;DHT22;331;48.414;9.938;2023-03-21T09:18:11;8.60;99.90
698;DHT22;331;48.414;9.938;2023-03-21T09:20:41;8.70;99.90
698;DHT22;331;48.414;9.938;2023-03-21T09:23:11;8.70;99.90
698;DHT22;331;48.414;9.938;2023-03-21T09:25:40;8.70;99.90
698;DHT22;331;48.414;9.938;2023-03-21T09:28:08;8.70;99.90
698;DHT22;331;48.414;9.938;2023-03-21T09:30:37;8.80;99.90
698;DHT22;331;48.414;9.938;2023-03-21T09:33:05;8.70;99.90
698;DHT22;331;48.414;9.938;2023-03-21T09:35:37;8.80;99.90
698;DHT22;331;48.414;9.938;2023-03-21T09:38:07;8.80;99.90
698;DHT22;331;48.414;9.938;2023-03-21T09:40:40;8.80;99.90
698;DHT22;331;48.414;9.938;2023-03-21T09:43:16;8.90;99.90
698;DHT22;331;48.414;9.938;2023-03-21T09:45:45;8.90;99.90
698;DHT22;331;48.414;9.938;2023-03-21T09:48:20;8.90;99.90
698;DHT22;331;48.414;9.938;2023-03-21T09:50:53;9.00;99.90
698;DHT22;331;48.414;9.938;2023-03-21T09:53:22;9.00;99.90
698;DHT22;331;48.414;9.938;2023-03-21T09:56:00;9.00;99.90
698;DHT22;331;48.414;9.938;2023-03-21T09:58:29;9.00;99.90
698;DHT22;331;48.414;9.938;2023-03-21T10:01:05;9.10;99.90
698;DHT22;331;48.414;9.938;2023-03-21T10:03:35;9.10;99.90
698;DHT22;331;48.414;9.938;2023-03-21T10:06:03;9.10;99.90
698;DHT22;331;48.414;9.938;2023-03-21T10:08:39;9.10;99.90
698;DHT22;331;48.414;9.938;2023-03-21T10:11:11;9.20;99.90
698;DHT22;331;48.414;9.938;2023-03-21T10:13:40;9.20;99.90
698;DHT22;331;48.414;9.938;2023-03-21T10:16:09;9.20;99.90
698;DHT22;331;48.414;9.938;2023-03-21T10:18:38;9.20;99.90
698;DHT22;331;48.414;9.938;2023-03-21T10:21:10;9.30;99.90
698;DHT22;331;48.414;9.938;2023-03-21T10:23:42;9.30;99.90
698;DHT22;331;48.414;9.938;2023-03-21T10:26:09;9.40;99.90
698;DHT22;331;48.414;9.938;2023-03-21T10:28:37;9.30;99.90
698;DHT22;331;48.414;9.938;2023-03-21T10:31:06;9.40;99.90
698;DHT22;331;48.414;9.938;2023-03-21T10:33:35;9.50;99.90
698;DHT22;331;48.414;9.938;2023-03-21T10:36:04;9.50;99.90
698;DHT22;331;48.414;9.938;2023-03-21T10:38:32;9.60;99.90
698;DHT22;331;48.414;9.938;2023-03-21T10:41:04;9.60;99.90
698;DHT22;331;48.414;9.938;2023-03-21T10:43:32;9.60;99.90
698;DHT22;331;48.414;9.938;2023-03-21T10:46:04;9.60;99.90
698;DHT22;331;48.414;9.938;2023-03-21T10:48:33;9.60;99.90
698;DHT22;331;48.414;9.938;2023-03-21T10:51:00;9.60;99.90
698;DHT22;331;48.414;9.938;2023-03-21T10:53:28;9.70;99.90
698;DHT22;331;48.414;9.938;2023-03-21T10:55:55;9.70;99.90
698;DHT22;331;48.414;9.938;2023-03-21T10:58:29;9.70;99.90
698;DHT22;331;48.414;9.938;2023-03-21T11:00:59;9.80;99.90
698;DHT22;331;48.414;9.938;2023-03-21T11:03:27;9.80;99.90
698;DHT22;331;48.414;9.938;2023-03-21T11:05:57;9.80;99.90
698;DHT22;331;48.414;9.938;2023-03-21T11:08:25;9.80;99.90
698;DHT22;331;48.414;9.938;2023-03-21T11:10:53;9.80;99.90
698;DHT22;331;48.414;9.938;2023-03-21T11:13:23;9.90;99.90
698;DHT22;331;48.414;9.938;2023-03-21T11:15:53;10.00;99.90
698;DHT22;331;48.414;9.938;2023-03-21T11:18:29;10.10;99.90
698;DHT22;331;48.414;9.938;2023-03-21T11:21:02;10.00;99.90
698;DHT22;331;48.414;9.938;2023-03-21T11:23:29;10.00;99.90
698;DHT22;331;48.414;9.938;2023-03-21T11:25:57;10.00;99.90
698;DHT22;331;48.414;9.938;2023-03-21T11:28:25;10.00;99.90
698;DHT22;331;48.414;9.938;2023-03-21T11:30:59;10.00;99.90
698;DHT22;331;48.414;9.938;2023-03-21T11:33:27;10.10;99.90
698;DHT22;331;48.414;9.938;2023-03-21T11:35:57;10.10;99.90
698;DHT22;331;48.414;9.938;2023-03-21T11:38:25;10.10;99.90
698;DHT22;331;48.414;9.938;2023-03-21T11:40:56;10.20;99.90
698;DHT22;331;48.414;9.938;2023-03-21T11:43:25;10.20;99.90
698;DHT22;331;48.414;9.938;2023-03-21T11:45:58;10.30;99.90
698;DHT22;331;48.414;9.938;2023-03-21T11:48:29;10.30;99.90
698;DHT22;331;48.414;9.938;2023-03-21T11:51:03;10.40;99.90
698;DHT22;331;48.414;9.938;2023-03-21T11:53:32;10.50;99.90
698;DHT22;331;48.414;9.938;2023-03-21T11:58:45;10.50;99.90
698;DHT22;331;48.414;9.938;2023-03-21T12:01:18;10.60;99.90
698;DHT22;331;48.414;9.938;2023-03-21T12:03:57;10.60;99.90
698;DHT22;331;48.414;9.938;2023-03-21T12:06:26;10.70;99.90
698;DHT22;331;48.414;9.938;2023-03-21T12:09:00;10.60;99.90
698;DHT22;331;48.414;9.938;2023-03-21T12:11:32;10.70;99.90
698;DHT22;331;48.414;9.938;2023-03-21T12:14:02;10.70;99.90
698;DHT22;331;48.414;9.938;2023-03-21T12:19:32;10.70;99.90
698;DHT22;331;48.414;9.938;2023-03-21T12:22:06;10.80;99.90
698;DHT22;331;48.414;9.938;2023-03-21T12:24:37;10.70;99.90
698;DHT22;331;48.414;9.938;2023-03-21T12:27:07;10.80;99.90
698;DHT22;331;48.414;9.938;2023-03-21T12:32:29;10.90;99.90
698;DHT22;331;48.414;9.938;2023-03-21T12:35:05;10.90;99.90
698;DHT22;331;48.414;9.938;2023-03-21T12:37:45;10.90;99.90
698;DHT22;331;48.414;9.938;2023-03-21T12:40:20;11.00;99.90
698;DHT22;331;48.414;9.938;2023-03-21T12:42:57;11.00;99.90
698;DHT22;331;48.414;9.938;2023-03-21T12:45:28;10.90;99.90
698;DHT22;331;48.414;9.938;2023-03-21T12:47:58;11.00;99.90
698;DHT22;331;48.414;9.938;2023-03-21T12:50:28;11.10;99.90
698;DHT22;331;48.414;9.938;2023-03-21T12:52:58;11.20;99.90
698;DHT22;331;48.414;9.938;2023-03-21T12:55:31;11.20;99.90
698;DHT22;331;48.414;9.938;2023-03-21T12:58:00;11.20;99.90
698;DHT22;331;48.414;9.938;2023-03-21T13:00:30;11.20;99.90
698;DHT22;331;48.414;9.938;2023-03-21T13:03:00;11.10;99.90
698;DHT22;331;48.414;9.938;2023-03-21T13:05:30;11.20;99.90
698;DHT22;331;48.414;9.938;2023-03-21T13:08:00;11.20;99.90
698;DHT22;331;48.414;9.938;2023-03-21T13:10:29;11.20;99.90
698;DHT22;331;48.414;9.938;2023-03-21T13:13:00;11.30;99.90
698;DHT22;331;48.414;9.938;2023-03-21T13:15:43;11.40;99.90
698;DHT22;331;48.414;9.938;2023-03-21T13:18:14;11.50;99.90
698;DHT22;331;48.414;9.938;2023-03-21T13:20:46;11.50;99.90
698;DHT22;331;48.414;9.938;2023-03-21T13:23:16;11.50;99.90
698;DHT22;331;48.414;9.938;2023-03-21T13:25:44;11.50;99.90
698;DHT22;331;48.414;9.938;2023-03-21T13:28:16;11.50;99.90
698;DHT22;331;48.414;9.938;2023-03-21T13:30:47;11.60;99.90
698;DHT22;331;48.414;9.938;2023-03-21T13:33:15;11.60;99.90
698;DHT22;331;48.414;9.938;2023-03-21T13:35:44;11.60;99.90
698;DHT22;331;48.414;9.938;2023-03-21T13:38:13;11.60;99.90
698;DHT22;331;48.414;9.938;2023-03-21T13:40:42;11.60;99.90
698;DHT22;331;48.414;9.938;2023-03-21T13:45:56;11.60;99.90
698;DHT22;331;48.414;9.938;2023-03-21T13:48:32;11.70;99.90
698;DHT22;331;48.414;9.938;2023-03-21T13:51:08;11.70;99.90
698;DHT22;331;48.414;9.938;2023-03-21T13:53:35;11.70;99.90
698;DHT22;331;48.414;9.938;2023-03-21T13:56:07;11.80;99.90
698;DHT22;331;48.414;9.938;2023-03-21T13:58:36;11.80;99.90
698;DHT22;331;48.414;9.938;2023-03-21T14:01:12;11.90;99.90
698;DHT22;331;48.414;9.938;2023-03-21T14:03:43;11.90;99.90
698;DHT22;331;48.414;9.938;2023-03-21T14:06:12;11.90;99.90
698;DHT22;331;48.414;9.938;2023-03-21T14:08:43;11.90;99.90
698;DHT22;331;48.414;9.938;2023-03-21T14:11:11;11.90;99.90
698;DHT22;331;48.414;9.938;2023-03-21T14:13:40;11.90;99.90
698;DHT22;331;48.414;9.938;2023-03-21T14:16:09;12.00;99.90
698;DHT22;331;48.414;9.938;2023-03-21T14:18:41;12.00;99.90
698;DHT22;331;48.414;9.938;2023-03-21T14:21:15;12.00;99.90
698;DHT22;331;48.414;9.938;2023-03-21T14:23:42;12.00;99.90
698;DHT22;331;48.414;9.938;2023-03-21T14:26:10;12.10;99.90
698;DHT22;331;48.414;9.938;2023-03-21T14:28:37;12.00;99.90
698;DHT22;331;48.414;9.938;2023-03-21T14:31:05;12.00;99.90
698;DHT22;331;48.414;9.938;2023-03-21T14:33:34;12.10;99.90
698;DHT22;331;48.414;9.938;2023-03-21T14:36:02;12.00;99.90
698;DHT22;331;48.414;9.938;2023-03-21T14:38:34;12.10;99.90
698;DHT22;331;48.414;9.938;2023-03-21T14:41:04;12.10;99.90
698;DHT22;331;48.414;9.938;2023-03-21T14:43:31;12.10;99.90
698;DHT22;331;48.414;9.938;2023-03-21T14:45:58;12.10;99.90
698;DHT22;331;48.414;9.938;2023-03-21T14:48:29;12.20;99.90
698;DHT22;331;48.414;9.938;2023-03-21T14:50:59;12.20;99.90
698;DHT22;331;48.414;9.938;2023-03-21T14:53:28;12.20;99.90
698;DHT22;331;48.414;9.938;2023-03-21T14:55:57;12.20;99.90
698;DHT22;331;48.414;9.938;2023-03-21T14:58:28;12.30;99.90
698;DHT22;331;48.414;9.938;2023-03-21T15:00:56;12.20;99.90
698;DHT22;331;48.414;9.938;2023-03-21T15:03:25;12.20;99.90
698;DHT22;331;48.414;9.938;2023-03-21T15:05:52;12.20;99.90
698;DHT22;331;48.414;9.938;2023-03-21T15:08:20;12.30;99.90
698;DHT22;331;48.414;9.938;2023-03-21T15:10:54;12.30;99.90
698;DHT22;331;48.414;9.938;2023-03-21T15:13:25;12.30;99.90
698;DHT22;331;48.414;9.938;2023-03-21T15:15:53;12.30;99.90
698;DHT22;331;48.414;9.938;2023-03-21T15:18:23;12.30;99.90
698;DHT22;331;48.414;9.938;2023-03-21T15:20:51;12.30;99.90
698;DHT22;331;48.414;9.938;2023-03-21T15:23:23;12.30;99.90
698;DHT22;331;48.414;9.938;2023-03-21T15:25:51;12.30;99.90
698;DHT22;331;48.414;9.938;2023-03-21T15:28:18;12.30;99.90
698;DHT22;331;48.414;9.938;2023-03-21T15:30:48;12.30;99.90
698;DHT22;331;48.414;9.938;2023-03-21T15:33:18;12.30;99.90
698;DHT22;331;48.414;9.938;2023-03-21T15:35:54;12.40;99.90
698;DHT22;331;48.414;9.938;2023-03-21T15:38:22;12.40;99.90
698;DHT22;331;48.414;9.938;2023-03-21T15:41:15;12.40;99.90
698;DHT22;331;48.414;9.938;2023-03-21T15:43:46;12.30;99.90
698;DHT22;331;48.414;9.938;2023-03-21T15:46:16;12.30;99.90
698;DHT22;331;48.414;9.938;2023-03-21T15:48:44;12.40;99.90
698;DHT22;331;48.414;9.938;2023-03-21T15:51:13;12.40;99.90
698;DHT22;331;48.414;9.938;2023-03-21T15:53:43;12.40;99.90
698;DHT22;331;48.414;9.938;2023-03-21T15:56:13;12.40;99.90
698;DHT22;331;48.414;9.938;2023-03-21T15:58:42;12.40;99.90
698;DHT22;331;48.414;9.938;2023-03-21T16:01:15;12.40;99.90
698;DHT22;331;48.414;9.938;2023-03-21T16:03:44;12.40;99.90
698;DHT22;331;48.414;9.938;2023-03-21T16:06:16;12.40;99.90
698;DHT22;331;48.414;9.938;2023-03-21T16:08:44;12.40;99.90
698;DHT22;331;48.414;9.938;2023-03-21T16:11:13;12.40;99.90
698;DHT22;331;48.414;9.938;2023-03-21T16:13:41;12.40;99.90
698;DHT22;331;48.414;9.938;2023-03-21T16:16:10;12.40;99.90
698;DHT22;331;48.414;9.938;2023-03-21T16:18:42;12.40;99.90
698;DHT22;331;48.414;9.938;2023-03-21T16:21:10;12.40;99.90
698;DHT22;331;48.414;9.938;2023-03-21T16:23:40;12.40;99.90
698;DHT22;331;48.414;9.938;2023-03-21T16:26:09;12.40;99.90
698;DHT22;331;48.414;9.938;2023-03-21T16:28:36;12.40;99.90
698;DHT22;331;48.414;9.938;2023-03-21T16:31:03;12.40;99.90
698;DHT22;331;48.414;9.938;2023-03-21T16:33:30;12.40;99.90
698;DHT22;331;48.414;9.938;2023-03-21T16:35:58;12.40;99.90
698;DHT22;331;48.414;9.938;2023-03-21T16:38:25;12.40;99.90
698;DHT22;331;48.414;9.938;2023-03-21T16:40:52;12.40;99.90
698;DHT22;331;48.414;9.938;2023-03-21T16:43:19;12.40;99.90
698;DHT22;331;48.414;9.938;2023-03-21T16:45:46;12.40;99.90
698;DHT22;331;48.414;9.938;2023-03-21T16:48:13;12.40;99.90
698;DHT22;331;48.414;9.938;2023-03-21T16:50:42;12.40;99.90
698;DHT22;331;48.414;9.938;2023-03-21T16:53:13;12.40;99.90
698;DHT22;331;48.414;9.938;2023-03-21T16:55:41;12.40;99.90
698;DHT22;331;48.414;9.938;2023-03-21T16:58:09;12.40;99.90
698;DHT22;331;48.414;9.938;2023-03-21T17:00:37;12.40;99.90
698;DHT22;331;48.414;9.938;2023-03-21T17:03:07;12.40;99.90
698;DHT22;331;48.414;9.938;2023-03-21T17:05:42;12.40;99.90
698;DHT22;331;48.414;9.938;2023-03-21T17:08:13;12.40;99.90
698;DHT22;331;48.414;9.938;2023-03-21T17:10:40;12.40;99.90
698;DHT22;331;48.414;9.938;2023-03-21T17:13:07;12.40;99.90
698;DHT22;331;48.414;9.938;2023-03-21T17:15:34;12.40;99.90
698;DHT22;331;48.414;9.938;2023-03-21T17:18:01;12.30;99.90
698;DHT22;331;48.414;9.938;2023-03-21T17:20:29;12.40;99.90
698;DHT22;331;48.414;9.938;2023-03-21T17:22:57;12.40;99.90
698;DHT22;331;48.414;9.938;2023-03-21T17:25:25;12.30;99.90
698;DHT22;331;48.414;9.938;2023-03-21T17:27:52;12.30;99.90